createdAt,value
2018-10-05T00:02:29.293Z,6.57
2018-10-05T00:05:04.018Z,6.17
2018-10-05T00:07:39.175Z,6.47
2018-10-05T00:10:14.194Z,7.17
2018-10-05T00:12:49.399Z,7.27
2018-10-05T00:15:24.325Z,7.07
2018-10-05T00:17:59.092Z,6.33
2018-10-05T00:20:33.995Z,6.73
2018-10-05T00:23:09.462Z,8.47
2018-10-05T00:25:44.417Z,8.10
2018-10-05T00:28:19.342Z,7.70
2018-10-05T00:30:54.018Z,7.80
2018-10-05T00:33:28.754Z,6.83
2018-10-05T00:36:03.658Z,6.67
2018-10-05T00:38:38.662Z,7.20
2018-10-05T00:41:13.508Z,7.20
2018-10-05T00:43:48.529Z,6.60
2018-10-05T00:46:23.710Z,7.07
2018-10-05T00:48:58.404Z,8.23
2018-10-05T00:51:33.345Z,8.27
2018-10-05T00:54:08.210Z,7.93
2018-10-05T00:56:43.619Z,7.00
2018-10-05T00:59:18.573Z,7.03
2018-10-05T01:01:53.556Z,6.53
2018-10-05T01:04:28.610Z,6.50
2018-10-05T01:07:04.090Z,6.67
2018-10-05T01:09:38.826Z,18.67
2018-10-05T01:12:13.742Z,12.37
2018-10-05T01:14:48.508Z,10.90
2018-10-05T01:17:24.047Z,10.63
2018-10-05T01:19:58.682Z,12.13
2018-10-05T01:22:33.362Z,8.37
2018-10-05T01:25:08.197Z,9.73
2018-10-05T01:27:43.146Z,10.60
2018-10-05T01:30:17.966Z,10.87
2018-10-05T01:32:52.684Z,9.70
2018-10-05T01:35:28.317Z,9.47
2018-10-05T01:38:03.321Z,8.07
2018-10-05T01:40:38.126Z,9.30
2018-10-05T01:43:13.015Z,7.77
2018-10-05T01:45:47.846Z,7.17
2018-10-05T01:48:23.041Z,8.33
2018-10-05T01:50:58.055Z,9.10
2018-10-05T01:53:32.759Z,10.20
2018-10-05T01:56:07.481Z,7.53
2018-10-05T01:58:42.930Z,7.43
2018-10-05T02:01:17.863Z,11.20
2018-10-05T02:03:52.943Z,8.93
2018-10-05T02:06:27.700Z,9.20
2018-10-05T02:09:02.763Z,8.70
2018-10-05T02:11:37.590Z,7.33
2018-10-05T02:14:12.658Z,7.83
2018-10-05T02:16:47.400Z,6.70
2018-10-05T02:19:22.284Z,7.83
2018-10-05T02:21:56.955Z,9.20
2018-10-05T02:24:32.035Z,8.97
2018-10-05T02:27:06.766Z,8.93
2018-10-05T02:29:41.601Z,9.07
2018-10-05T02:32:16.270Z,11.57
2018-10-05T02:34:51.598Z,9.50
2018-10-05T02:37:26.559Z,8.50
2018-10-05T02:40:01.985Z,7.07
2018-10-05T02:42:36.718Z,8.00
2018-10-05T02:45:11.432Z,9.67
2018-10-05T02:47:46.074Z,8.40
2018-10-05T02:50:20.817Z,8.87
2018-10-05T02:52:56.511Z,7.13
2018-10-05T02:55:31.277Z,9.83
2018-10-05T02:58:06.798Z,8.67
2018-10-05T03:00:53.613Z,9.97
2018-10-05T03:03:28.266Z,10.13
2018-10-05T03:06:02.878Z,11.93
2018-10-05T03:08:37.501Z,11.70
2018-10-05T03:11:12.710Z,9.10
2018-10-05T03:13:48.086Z,7.43
2018-10-05T03:16:22.830Z,8.93
2018-10-05T03:18:57.537Z,10.80
2018-10-05T03:21:32.372Z,8.50
2018-10-05T03:24:07.225Z,8.53
2018-10-05T03:26:42.236Z,8.90
2018-10-05T03:29:16.875Z,10.77
2018-10-05T03:31:51.692Z,10.40
2018-10-05T03:34:27.932Z,11.77
2018-10-05T03:37:02.645Z,10.70
2018-10-05T03:39:37.731Z,9.83
2018-10-05T03:42:12.644Z,10.43
2018-10-05T03:44:47.514Z,15.23
2018-10-05T03:47:22.711Z,11.60
2018-10-05T03:49:57.438Z,11.87
2018-10-05T03:52:32.388Z,11.53
2018-10-05T03:55:07.330Z,10.33
2018-10-05T03:57:42.149Z,9.43
2018-10-05T04:00:16.865Z,10.30
2018-10-05T04:02:51.933Z,11.20
2018-10-05T04:05:26.538Z,10.67
2018-10-05T04:08:01.574Z,8.83
2018-10-05T04:10:36.845Z,10.57
2018-10-05T04:13:11.650Z,11.40
2018-10-05T04:15:46.382Z,11.10
2018-10-05T04:18:21.248Z,12.97
2018-10-05T04:20:56.791Z,13.13
2018-10-05T04:23:31.590Z,12.50
2018-10-05T04:26:06.329Z,12.83
2018-10-05T04:28:42.384Z,13.03
2018-10-05T04:31:17.501Z,15.33
2018-10-05T04:33:52.335Z,13.97
2018-10-05T04:36:27.068Z,11.60
2018-10-05T04:39:01.792Z,11.67
2018-10-05T04:41:36.658Z,11.63
2018-10-05T04:44:11.457Z,10.93
2018-10-05T04:46:46.185Z,11.50
2018-10-05T04:49:21.885Z,13.57
2018-10-05T04:51:57.297Z,11.87
2018-10-05T04:54:32.953Z,12.57
2018-10-05T04:57:08.265Z,11.70
2018-10-05T04:59:44.117Z,11.73
2018-10-05T05:02:18.750Z,11.70
2018-10-05T05:04:53.511Z,11.27
2018-10-05T05:07:28.366Z,11.40
2018-10-05T05:10:03.253Z,16.10
2018-10-05T05:12:37.872Z,17.30
2018-10-05T05:15:12.635Z,14.67
2018-10-05T05:17:47.476Z,11.57
2018-10-05T05:20:22.264Z,11.17
2018-10-05T05:22:57.005Z,12.70
2018-10-05T05:25:31.613Z,12.83
2018-10-05T05:28:06.497Z,11.77
2018-10-05T05:30:41.277Z,12.40
2018-10-05T05:33:16.061Z,16.73
2018-10-05T05:35:51.013Z,19.67
2018-10-05T05:38:25.885Z,16.97
2018-10-05T05:41:00.602Z,19.20
2018-10-05T05:43:35.527Z,15.10
2018-10-05T05:46:10.153Z,16.27
2018-10-05T05:48:45.493Z,17.10
2018-10-05T05:51:21.249Z,17.60
2018-10-05T05:53:56.299Z,18.03
2018-10-05T05:56:31.322Z,16.53
2018-10-05T05:59:06.293Z,17.80
2018-10-05T06:01:41.093Z,19.53
2018-10-05T06:04:16.010Z,23.63
2018-10-05T06:06:51.260Z,18.07
2018-10-05T06:09:26.011Z,18.27
2018-10-05T06:12:00.933Z,14.50
2018-10-05T06:14:36.090Z,14.90
2018-10-05T06:17:10.940Z,13.20
2018-10-05T06:19:46.220Z,14.63
2018-10-05T06:22:21.107Z,13.47
2018-10-05T06:24:56.630Z,13.73
2018-10-05T06:27:31.492Z,14.50
2018-10-05T06:30:06.462Z,17.73
2018-10-05T06:32:41.842Z,23.73
2018-10-05T06:35:16.652Z,19.07
2018-10-05T06:37:51.745Z,15.40
2018-10-05T06:40:26.622Z,17.57
2018-10-05T06:43:02.075Z,15.07
2018-10-05T06:45:36.891Z,16.90
2018-10-05T06:48:11.878Z,18.63
2018-10-05T06:50:46.749Z,21.97
2018-10-05T06:53:21.752Z,21.00
2018-10-05T06:55:56.658Z,24.30
2018-10-05T06:58:31.417Z,23.63
2018-10-05T07:01:06.539Z,19.57
2018-10-05T07:03:41.378Z,17.17
2018-10-05T07:06:16.293Z,18.40
2018-10-05T07:08:51.093Z,18.47
2018-10-05T07:11:25.924Z,18.00
2018-10-05T07:14:00.987Z,19.90
2018-10-05T07:16:36.597Z,19.03
2018-10-05T07:19:11.437Z,21.27
2018-10-05T07:21:46.179Z,20.23
2018-10-05T07:24:20.914Z,20.27
2018-10-05T07:26:55.931Z,18.03
2018-10-05T07:29:30.859Z,19.30
2018-10-05T07:32:05.693Z,19.53
2018-10-05T07:34:41.229Z,19.70
2018-10-05T07:37:16.032Z,19.30
2018-10-05T07:39:51.733Z,18.33
2018-10-05T07:42:27.470Z,17.20
2018-10-05T07:45:02.206Z,17.70
2018-10-05T07:47:37.038Z,17.20
2018-10-05T07:50:11.879Z,17.30
2018-10-05T07:52:46.798Z,17.40
2018-10-05T07:55:22.150Z,18.43
2018-10-05T07:57:57.898Z,17.40
2018-10-05T08:00:32.930Z,15.43
2018-10-05T08:03:07.706Z,15.67
2018-10-05T08:05:42.532Z,15.70
2018-10-05T08:08:18.090Z,15.63
2018-10-05T08:10:52.865Z,15.63
2018-10-05T08:13:27.733Z,15.50
2018-10-05T08:16:02.551Z,15.53
2018-10-05T08:18:37.249Z,15.50
2018-10-05T08:21:12.144Z,15.47
2018-10-05T08:23:47.670Z,15.00
2018-10-05T08:26:23.186Z,14.30
2018-10-05T08:28:58.493Z,13.90
2018-10-05T08:31:34.054Z,14.13
2018-10-05T08:34:09.600Z,13.75
2018-10-05T08:36:45.238Z,14.33
2018-10-05T08:39:20.686Z,13.43
2018-10-05T08:41:56.109Z,13.88
2018-10-05T08:44:32.323Z,13.88
2018-10-05T08:47:07.601Z,14.15
2018-10-05T08:49:43.053Z,13.95
2018-10-05T08:52:18.468Z,13.95
2018-10-05T08:54:53.948Z,13.28
2018-10-05T08:57:29.470Z,14.07
2018-10-05T09:00:05.645Z,13.65
2018-10-05T09:02:41.629Z,13.58
2018-10-05T09:05:17.118Z,13.62
2018-10-05T09:07:53.299Z,13.65
2018-10-05T09:10:29.430Z,13.45
2018-10-05T09:13:05.151Z,13.05
2018-10-05T09:15:40.611Z,13.35
2018-10-05T09:18:15.892Z,14.80
2018-10-05T09:20:51.346Z,13.28
2018-10-05T09:23:27.056Z,13.75
2018-10-05T09:26:02.938Z,12.50
2018-10-05T09:28:38.485Z,11.48
2018-10-05T09:31:13.991Z,12.65
2018-10-05T09:33:49.574Z,12.07
2018-10-05T09:36:24.963Z,11.75
2018-10-05T09:39:00.693Z,12.03
2018-10-05T09:41:36.032Z,11.55
2018-10-05T09:44:11.485Z,12.10
2018-10-05T09:46:47.902Z,11.00
2018-10-05T09:49:23.346Z,11.60
2018-10-05T09:51:58.892Z,11.78
2018-10-05T09:54:34.374Z,11.28
2018-10-05T09:57:09.921Z,10.90
2018-10-05T09:59:45.093Z,11.93
2018-10-05T10:02:25.548Z,12.00
2018-10-05T10:05:00.813Z,12.17
2018-10-05T10:07:36.266Z,12.27
2018-10-05T10:10:11.564Z,12.20
2018-10-05T10:12:46.941Z,10.60
2018-10-05T10:15:22.173Z,11.10
2018-10-05T10:17:57.273Z,11.17
2018-10-05T10:20:32.411Z,10.03
2018-10-05T10:23:07.507Z,10.17
2018-10-05T10:25:43.154Z,9.53
2018-10-05T10:28:18.459Z,8.73
2018-10-05T10:30:53.822Z,9.03
2018-10-05T10:33:29.012Z,7.63
2018-10-05T10:36:04.278Z,7.83
2018-10-05T10:38:39.361Z,6.97
2018-10-05T10:41:14.768Z,7.50
2018-10-05T10:43:49.829Z,5.67
2018-10-05T10:46:25.038Z,4.87
2018-10-05T10:49:00.644Z,4.73
2018-10-05T10:51:35.700Z,4.73
2018-10-05T10:54:10.841Z,4.60
2018-10-05T10:56:46.042Z,4.50
2018-10-05T10:59:21.393Z,4.00
2018-10-05T11:01:56.376Z,4.37
2018-10-05T11:04:31.562Z,4.00
2018-10-05T11:07:06.993Z,4.20
2018-10-05T11:09:41.939Z,4.07
2018-10-05T11:12:17.114Z,3.47
2018-10-05T11:14:51.958Z,3.07
2018-10-05T11:17:27.768Z,3.13
2018-10-05T11:20:02.666Z,2.70
2018-10-05T11:22:37.880Z,3.77
2018-10-05T11:25:13.933Z,3.20
2018-10-05T11:27:48.953Z,3.40
2018-10-05T11:30:24.131Z,3.63
2018-10-05T11:32:59.325Z,3.40
2018-10-05T11:35:34.363Z,3.90
2018-10-05T11:38:09.811Z,3.60
2018-10-05T11:40:45.105Z,3.80
2018-10-05T11:43:20.540Z,3.90
2018-10-05T11:45:55.713Z,3.40
2018-10-05T11:48:30.873Z,2.90
2018-10-05T11:51:06.536Z,2.53
2018-10-05T11:53:42.733Z,2.50
2018-10-05T11:56:18.067Z,2.30
2018-10-05T11:58:52.928Z,2.40
2018-10-05T12:01:28.090Z,2.70
2018-10-05T12:04:04.200Z,2.70
2018-10-05T12:06:39.415Z,2.50
2018-10-05T12:09:14.593Z,2.40
2018-10-05T12:11:49.964Z,2.40
2018-10-05T12:14:25.559Z,2.40
2018-10-05T12:17:01.421Z,2.47
2018-10-05T12:19:36.391Z,2.23
2018-10-05T12:22:11.547Z,2.27
2018-10-05T12:24:46.645Z,2.50
2018-10-05T12:27:22.865Z,2.50
2018-10-05T12:29:57.870Z,2.10
2018-10-05T12:32:33.773Z,2.00
2018-10-05T12:35:09.050Z,2.23
2018-10-05T12:37:44.046Z,2.10
2018-10-05T12:40:19.731Z,2.07
2018-10-05T12:42:55.517Z,2.30
2018-10-05T12:45:30.798Z,2.20
2018-10-05T12:48:05.857Z,2.00
2018-10-05T12:50:40.933Z,2.40
2018-10-05T12:53:16.115Z,2.30
2018-10-05T12:55:51.411Z,2.30
2018-10-05T12:58:26.365Z,2.10
2018-10-05T13:01:01.486Z,2.00
2018-10-05T13:03:36.445Z,1.90
2018-10-05T13:06:11.410Z,2.00
2018-10-05T13:08:46.509Z,2.10
2018-10-05T13:11:21.592Z,2.00
2018-10-05T13:13:56.670Z,2.00
2018-10-05T13:16:31.829Z,2.40
2018-10-05T13:19:07.137Z,2.03
2018-10-05T13:21:42.305Z,2.10
2018-10-05T13:24:17.515Z,2.10
2018-10-05T13:26:52.487Z,2.10
2018-10-05T13:29:27.580Z,2.27
2018-10-05T13:32:03.585Z,2.00
2018-10-05T13:34:38.725Z,2.07
2018-10-05T13:37:13.839Z,2.00
2018-10-05T13:39:48.993Z,1.90
2018-10-05T13:42:24.123Z,2.17
2018-10-05T13:44:59.451Z,2.27
2018-10-05T13:47:34.969Z,2.10
2018-10-05T13:50:12.202Z,2.03
2018-10-05T13:52:47.367Z,2.33
2018-10-05T13:55:22.406Z,2.10
2018-10-05T13:57:58.601Z,2.10
2018-10-05T14:00:33.817Z,2.40
2018-10-05T14:03:08.850Z,2.40
2018-10-05T14:05:44.039Z,1.90
2018-10-05T14:08:19.221Z,2.30
2018-10-05T14:10:54.191Z,2.03
2018-10-05T14:13:29.346Z,2.20
2018-10-05T14:16:05.109Z,2.30
2018-10-05T14:18:40.127Z,2.10
2018-10-05T14:21:15.346Z,2.33
2018-10-05T14:23:50.443Z,2.10
2018-10-05T14:26:25.557Z,48.53
2018-10-05T14:29:00.644Z,20.67
2018-10-05T14:31:36.010Z,5.40
2018-10-05T14:34:10.967Z,2.30
2018-10-05T14:36:46.970Z,3.73
2018-10-05T14:39:22.349Z,5.33
2018-10-05T14:41:57.779Z,68.60
2018-10-05T14:44:33.235Z,23.87
2018-10-05T14:47:09.087Z,21.57
2018-10-05T14:49:44.158Z,3.77
2018-10-05T14:52:24.522Z,3.60
2018-10-05T14:54:59.661Z,3.40
2018-10-05T14:57:34.934Z,2.60
2018-10-05T15:00:10.130Z,3.70
2018-10-05T15:02:45.201Z,2.97
2018-10-05T15:05:20.317Z,2.50
2018-10-05T15:07:55.289Z,2.30
2018-10-05T15:10:30.604Z,2.60
2018-10-05T15:13:05.776Z,2.20
2018-10-05T15:15:40.937Z,2.27
2018-10-05T15:18:16.045Z,2.20
2018-10-05T15:20:51.135Z,2.90
2018-10-05T15:23:26.450Z,2.67
2018-10-05T15:26:02.901Z,2.47
2018-10-05T15:28:37.972Z,2.40
2018-10-05T15:31:13.052Z,2.27
2018-10-05T15:33:48.068Z,2.23
2018-10-05T15:36:23.024Z,2.20
2018-10-05T15:38:58.945Z,2.30
2018-10-05T15:41:35.422Z,2.50
2018-10-05T15:44:10.461Z,2.30
2018-10-05T15:47:03.121Z,2.43
2018-10-05T15:49:38.966Z,2.17
2018-10-05T15:52:14.515Z,2.57
2018-10-05T15:54:49.501Z,2.33
2018-10-05T15:57:25.099Z,3.07
2018-10-05T16:00:00.248Z,2.63
2018-10-05T16:02:35.761Z,3.10
2018-10-05T16:05:11.130Z,3.00
2018-10-05T16:07:46.516Z,2.85
2018-10-05T16:10:21.915Z,2.83
2018-10-05T16:12:57.464Z,3.45
2018-10-05T16:15:33.790Z,3.30
2018-10-05T16:18:09.391Z,3.42
2018-10-05T16:20:44.890Z,3.40
2018-10-05T16:23:20.283Z,3.02
2018-10-05T16:25:55.827Z,3.12
2018-10-05T16:28:31.356Z,3.90
2018-10-05T16:31:06.981Z,3.70
2018-10-05T16:33:42.614Z,3.42
2018-10-05T16:36:18.163Z,3.85
2018-10-05T16:38:53.465Z,3.45
2018-10-05T16:41:28.915Z,3.45
2018-10-05T16:44:04.574Z,3.62
2018-10-05T16:46:40.255Z,3.90
2018-10-05T16:49:15.700Z,3.62
2018-10-05T16:51:51.071Z,3.75
2018-10-05T16:54:26.833Z,3.87
2018-10-05T16:57:02.770Z,4.08
2018-10-05T16:59:38.495Z,3.77
2018-10-05T17:02:14.174Z,9.03
2018-10-05T17:04:49.846Z,4.45
2018-10-05T17:07:25.733Z,4.50
2018-10-05T17:10:01.147Z,4.17
2018-10-05T17:12:36.415Z,3.65
2018-10-05T17:15:11.705Z,3.27
2018-10-05T17:17:46.939Z,4.90
2018-10-05T17:20:22.447Z,6.60
2018-10-05T17:22:57.883Z,5.85
2018-10-05T17:25:33.457Z,4.28
2018-10-05T17:28:09.034Z,3.20
2018-10-05T17:30:44.342Z,3.42
2018-10-05T17:33:20.470Z,3.67
2018-10-05T17:35:56.646Z,4.30
2018-10-05T17:38:32.148Z,3.80
2018-10-05T17:41:07.855Z,4.50
2018-10-05T17:43:43.332Z,4.33
2018-10-05T17:46:18.826Z,3.90
2018-10-05T17:48:54.086Z,3.80
2018-10-05T17:51:29.509Z,3.92
2018-10-05T17:54:04.794Z,4.12
2018-10-05T17:56:40.184Z,5.03
2018-10-05T17:59:16.468Z,4.85
2018-10-05T18:01:51.757Z,12.30
2018-10-05T18:04:27.330Z,3.42
2018-10-05T18:07:02.733Z,3.30
2018-10-05T18:09:38.118Z,3.55
2018-10-05T18:12:13.495Z,4.03
2018-10-05T18:14:48.995Z,4.60
2018-10-05T18:17:25.058Z,4.45
2018-10-05T18:20:01.071Z,4.83
2018-10-05T18:22:36.722Z,4.15
2018-10-05T18:25:12.621Z,4.45
2018-10-05T18:27:48.200Z,4.70
2018-10-05T18:30:23.596Z,5.22
2018-10-05T18:32:58.974Z,4.92
2018-10-05T18:35:35.204Z,4.40
2018-10-05T18:38:10.602Z,4.90
2018-10-05T18:40:45.806Z,4.40
2018-10-05T18:43:21.571Z,5.60
2018-10-05T18:45:56.435Z,5.00
2018-10-05T18:48:31.207Z,5.50
2018-10-05T18:51:06.071Z,5.40
2018-10-05T18:53:41.377Z,5.20
2018-10-05T18:56:27.279Z,5.03
2018-10-05T18:59:02.247Z,5.50
2018-10-05T19:01:37.012Z,5.37
2018-10-05T19:04:11.723Z,5.87
2018-10-05T19:06:46.945Z,6.57
2018-10-05T19:09:22.036Z,5.80
2018-10-05T19:11:56.957Z,5.57
2018-10-05T19:14:31.856Z,6.17
2018-10-05T19:17:07.218Z,6.33
2018-10-05T19:19:42.018Z,5.93
2018-10-05T19:22:17.278Z,5.50
2018-10-05T19:24:52.196Z,6.27
2018-10-05T19:27:26.948Z,6.43
2018-10-05T19:30:01.872Z,5.60
2018-10-05T19:32:37.185Z,5.80
2018-10-05T19:35:12.663Z,5.57
2018-10-05T19:37:47.926Z,5.63
2018-10-05T19:40:22.959Z,6.37
2018-10-05T19:42:57.747Z,6.47
2018-10-05T19:45:32.653Z,7.60
2018-10-05T19:48:07.473Z,5.97
2018-10-05T19:50:43.316Z,6.33
2018-10-05T19:53:18.447Z,6.40
2018-10-05T19:55:53.882Z,6.10
2018-10-05T19:58:28.581Z,6.77
2018-10-05T20:01:03.670Z,6.77
2018-10-05T20:03:38.678Z,5.30
2018-10-05T20:06:13.641Z,5.17
2018-10-05T20:08:48.404Z,6.10
2018-10-05T20:11:23.225Z,6.37
2018-10-05T20:13:58.054Z,6.17
2018-10-05T20:16:32.944Z,5.97
2018-10-05T20:19:07.785Z,6.30
2018-10-05T20:21:42.417Z,5.50
2018-10-05T20:24:17.854Z,7.33
2018-10-05T20:26:52.871Z,5.77
2018-10-05T20:29:27.585Z,6.07
2018-10-05T20:32:02.529Z,6.37
2018-10-05T20:34:37.338Z,7.97
2018-10-05T20:37:12.205Z,7.30
2018-10-05T20:39:47.083Z,6.97
2018-10-05T20:42:22.165Z,6.83
2018-10-05T20:44:57.412Z,8.00
2018-10-05T20:47:32.244Z,8.47
2018-10-05T20:50:07.117Z,19.33
2018-10-05T20:52:41.990Z,8.17
2018-10-05T20:55:16.957Z,7.50
2018-10-05T20:57:51.765Z,7.00
2018-10-05T21:00:26.865Z,7.47
2018-10-05T21:03:01.701Z,7.30
2018-10-05T21:05:36.632Z,8.50
2018-10-05T21:08:11.465Z,7.03
2018-10-05T21:10:46.322Z,6.80
2018-10-05T21:13:22.834Z,7.90
2018-10-05T21:15:58.439Z,7.30
2018-10-05T21:18:33.207Z,7.03
2018-10-05T21:21:08.255Z,7.70
2018-10-05T21:23:42.987Z,7.93
2018-10-05T21:26:18.422Z,8.40
2018-10-05T21:28:53.241Z,8.03
2018-10-05T21:31:28.607Z,7.23
2018-10-05T21:34:03.535Z,7.07
2018-10-05T21:36:38.261Z,7.40
2018-10-05T21:39:13.830Z,7.33
2018-10-05T21:41:48.643Z,7.40
2018-10-05T21:44:23.569Z,8.13
2018-10-05T21:46:58.700Z,7.70
2018-10-05T21:49:33.534Z,10.17
2018-10-05T21:52:08.470Z,6.63
2018-10-05T21:54:43.199Z,7.70
2018-10-05T21:57:18.055Z,8.17
2018-10-05T21:59:52.866Z,7.67
2018-10-05T22:02:31.865Z,7.67
2018-10-05T22:05:08.458Z,7.53
2018-10-05T22:07:43.250Z,7.67
2018-10-05T22:10:18.143Z,8.23
2018-10-05T22:12:53.080Z,7.90
2018-10-05T22:15:27.894Z,7.30
2018-10-05T22:18:02.914Z,8.23
2018-10-05T22:20:37.728Z,7.60
2018-10-05T22:23:12.453Z,7.13
2018-10-05T22:25:47.289Z,9.10
2018-10-05T22:28:21.928Z,9.00
2018-10-05T22:30:56.760Z,8.00
2018-10-05T22:33:31.488Z,8.07
2018-10-05T22:36:06.532Z,8.10
2018-10-05T22:38:41.519Z,7.53
2018-10-05T22:41:16.515Z,8.13
2018-10-05T22:43:51.504Z,8.40
2018-10-05T22:46:26.310Z,8.80
2018-10-05T22:49:01.089Z,8.43
2018-10-05T22:51:36.018Z,7.93
2018-10-05T22:54:10.789Z,7.50
2018-10-05T22:56:46.198Z,7.67
2018-10-05T22:59:20.820Z,7.50
2018-10-05T23:01:55.672Z,7.93
2018-10-05T23:04:30.510Z,8.40
2018-10-05T23:07:05.369Z,6.90
2018-10-05T23:09:40.134Z,7.33
2018-10-05T23:12:14.791Z,7.00
2018-10-05T23:14:49.642Z,6.97
2018-10-05T23:17:24.466Z,6.60
2018-10-05T23:19:59.365Z,7.07
2018-10-05T23:22:34.124Z,6.90
2018-10-05T23:25:08.958Z,6.93
2018-10-05T23:27:43.646Z,6.57
2018-10-05T23:30:18.441Z,7.67
2018-10-05T23:32:53.250Z,7.80
2018-10-05T23:35:29.464Z,7.67
2018-10-05T23:38:04.282Z,7.20
2018-10-05T23:40:39.141Z,8.00
2018-10-05T23:43:14.518Z,7.67
2018-10-05T23:45:49.333Z,6.97
2018-10-05T23:48:24.027Z,7.03
2018-10-05T23:50:58.970Z,8.10
2018-10-05T23:53:33.730Z,7.87
2018-10-05T23:56:08.451Z,8.83
2018-10-05T23:58:43.454Z,6.83
